Time;durP1;ratioP1;P1;durP2;ratioP2;P2;SDS_P1;SDS_P2;PMS_P1;PMS_P2;Temp;Humidity;BMP_temperature;BMP_pressure;BME280_temperature;BME280_humidity;BME280_pressure;Samples;Min_cycle;Max_cycle;Signal;HPM_P1;HPM_P2
2023/03/26 00:00:15;;;;;;;9.25;5.50;;;;;;;10.11;66.94;100103.22;688854;28;1313;-86
2023/03/26 00:00:37;;;;;;;9.37;5.30;;;;;;;10.09;67.02;100099.69;683460;29;1583;-86
2023/03/26 00:01:04;;;;;;;8.57;5.50;;;;;;;10.15;66.96;100104.16;683433;29;1723;-85
2023/03/26 00:01:26;;;;;;;7.05;5.35;;;;;;;10.03;66.80;100099.59;683068;29;1164;-85
2023/03/26 00:01:48;;;;;;;8.45;5.70;;;;;;;10.07;67.37;100100.53;683353;29;1975;-85
2023/03/26 00:02:09;;;;;;;8.38;5.65;;;;;;;10.19;67.22;100120.75;678162;29;1106;-85
2023/03/26 00:02:30;;;;;;;9.00;5.72;;;;;;;10.07;67.00;100096.19;680694;29;994;-85
2023/03/26 00:02:51;;;;;;;8.20;5.35;;;;;;;10.07;67.08;100104.00;680824;29;1166;-85
2023/03/26 00:03:13;;;;;;;8.65;5.35;;;;;;;9.98;67.01;100090.78;682495;29;1176;-85
2023/03/26 00:03:34;;;;;;;8.40;5.05;;;;;;;10.13;67.27;100111.06;685878;28;1241;-85
2023/03/26 00:03:56;;;;;;;8.98;5.20;;;;;;;10.13;66.91;100108.44;686075;28;1264;-85
2023/03/26 00:04:18;;;;;;;10.10;5.20;;;;;;;10.14;67.03;100108.50;685898;28;1299;-85
2023/03/26 00:04:41;;;;;;;8.25;5.18;;;;;;;10.09;66.89;100104.03;685974;28;1099;-85
2023/03/26 00:05:01;;;;;;;9.85;5.70;;;;;;;10.07;67.10;100097.94;686117;28;1130;-85
2023/03/26 00:05:22;;;;;;;10.07;5.75;;;;;;;10.17;66.73;100106.78;680789;29;1235;-85
2023/03/26 00:05:46;;;;;;;11.10;6.00;;;;;;;10.13;66.83;100111.94;683293;28;1117;-86
2023/03/26 00:06:14;;;;;;;10.38;5.82;;;;;;;10.04;66.75;100105.66;683360;29;1166;-85
2023/03/26 00:06:38;;;;;;;9.25;5.28;;;;;;;10.05;66.98;100097.00;685891;28;1346;-85
2023/03/26 00:06:58;;;;;;;9.27;5.25;;;;;;;10.05;66.98;100103.09;683284;29;1318;-85
2023/03/26 00:07:19;;;;;;;10.57;5.20;;;;;;;10.05;66.93;100104.81;686023;28;1240;-86
2023/03/26 00:07:40;;;;;;;11.98;5.70;;;;;;;10.04;67.24;100106.56;683200;29;1219;-85
2023/03/26 00:08:01;;;;;;;12.18;5.60;;;;;;;10.15;67.26;100120.66;682353;29;983;-85
2023/03/26 00:08:22;;;;;;;10.48;5.50;;;;;;;10.18;67.17;100126.81;685941;28;1020;-85
2023/03/26 00:08:44;;;;;;;9.02;5.40;;;;;;;10.21;66.97;100124.25;685850;28;1089;-85
2023/03/26 00:09:07;;;;;;;8.50;5.30;;;;;;;10.15;66.75;100117.19;686069;28;1223;-85
2023/03/26 00:09:28;;;;;;;9.90;5.15;;;;;;;10.15;67.21;100117.19;687429;28;1215;-85
2023/03/26 00:09:49;;;;;;;10.60;5.25;;;;;;;10.06;67.03;100101.38;683269;29;1271;-85
2023/03/26 00:10:10;;;;;;;10.50;5.33;;;;;;;10.15;67.17;100125.88;683359;29;1039;-86
2023/03/26 00:10:30;;;;;;;11.15;5.85;;;;;;;10.17;67.10;100125.03;683399;29;1018;-85
2023/03/26 00:10:51;;;;;;;10.48;5.65;;;;;;;10.07;66.64;100117.03;685987;28;1223;-85
2023/03/26 00:11:14;;;;;;;10.50;6.00;;;;;;;10.09;66.90;100115.31;680674;29;1297;-85
2023/03/26 00:11:35;;;;;;;9.00;5.70;;;;;;;10.13;66.75;100119.78;683256;29;1114;-86
2023/03/26 00:11:56;;;;;;;7.63;5.43;;;;;;;10.13;66.91;100118.88;685807;28;1213;-86
2023/03/26 00:12:26;;;;;;;8.35;5.05;;;;;;;10.11;66.89;100118.88;688164;28;1164;-86
2023/03/26 00:12:47;;;;;;;10.95;5.30;;;;;;;10.05;66.88;100108.31;685916;28;1335;-85
2023/03/26 00:13:08;;;;;;;9.30;5.20;;;;;;;10.03;66.83;100110.03;688669;28;1069;-85
2023/03/26 00:13:31;;;;;;;7.95;5.32;;;;;;;10.10;67.09;100121.44;686043;28;915;-86
2023/03/26 00:13:55;;;;;;;6.60;5.18;;;;;;;10.10;66.65;100118.84;688614;28;1276;-85
2023/03/26 00:14:16;;;;;;;6.47;5.10;;;;;;;10.01;66.84;100109.09;688518;28;1279;-85
2023/03/26 00:14:37;;;;;;;6.70;5.20;;;;;;;10.10;67.15;100127.53;688619;28;1133;-86
2023/03/26 00:14:57;;;;;;;7.67;5.37;;;;;;;10.01;66.87;100112.59;688719;28;1441;-86
2023/03/26 00:15:18;;;;;;;8.32;5.78;;;;;;;10.13;67.08;100126.69;685966;28;1182;-86
2023/03/26 00:15:39;;;;;;;9.27;6.07;;;;;;;10.06;67.17;100122.25;685907;28;989;-85
2023/03/26 00:16:00;;;;;;;9.85;6.10;;;;;;;10.11;67.31;100134.50;686045;28;1160;-85
2023/03/26 00:16:22;;;;;;;10.05;5.93;;;;;;;10.10;67.13;100129.25;688691;28;1164;-85
2023/03/26 00:16:43;;;;;;;9.55;5.88;;;;;;;10.01;67.09;100111.69;682937;29;1221;-85
2023/03/26 00:17:04;;;;;;;9.60;5.75;;;;;;;10.07;67.02;100117.03;683372;29;994;-85
2023/03/26 00:17:24;;;;;;;9.18;5.60;;;;;;;10.06;67.08;100130.06;683189;29;1198;-85
2023/03/26 00:17:46;;;;;;;9.07;5.50;;;;;;;10.05;67.10;100118.75;685810;28;1195;-85
2023/03/26 00:18:08;;;;;;;9.80;5.90;;;;;;;10.11;67.06;100128.41;688641;28;1115;-85
2023/03/26 00:18:30;;;;;;;9.43;6.07;;;;;;;10.10;67.17;100127.53;688493;28;1357;-85
2023/03/26 00:18:52;;;;;;;10.10;6.07;;;;;;;10.00;67.00;100112.56;688652;28;1404;-85
2023/03/26 00:19:12;;;;;;;10.65;6.53;;;;;;;10.05;67.29;100126.56;688566;28;1391;-85
2023/03/26 00:19:33;;;;;;;12.57;6.90;;;;;;;10.07;67.14;100140.50;685997;28;1012;-85
2023/03/26 00:19:55;;;;;;;12.43;6.97;;;;;;;9.94;67.02;100110.72;685595;28;1250;-86
2023/03/26 00:20:16;;;;;;;13.10;6.43;;;;;;;9.95;67.03;100111.59;688672;28;1324;-85
2023/03/26 00:20:37;;;;;;;13.93;6.80;;;;;;;10.00;66.92;100125.59;688579;28;1261;-85
2023/03/26 00:20:59;;;;;;;12.90;6.63;;;;;;;9.99;67.02;100134.25;688866;28;966;-86
2023/03/26 00:21:30;;;;;;;12.65;6.63;;;;;;;9.97;67.13;100125.53;685888;28;1293;-86
2023/03/26 00:22:02;;;;;;;13.80;6.32;;;;;;;9.90;67.28;100123.66;680553;29;1965;-85
2023/03/26 00:22:22;;;;;;;14.52;6.32;;;;;;;9.91;67.12;100126.31;688539;28;881;-85
2023/03/26 00:22:44;;;;;;;11.87;6.33;;;;;;;9.92;67.22;100129.75;688355;28;1197;-85
2023/03/26 00:23:04;;;;;;;11.90;6.65;;;;;;;10.01;67.28;100140.38;685977;28;1131;-85
2023/03/26 00:23:27;;;;;;;10.97;6.90;;;;;;;9.97;67.10;100146.38;683266;29;1190;-85
2023/03/26 00:24:13;;;;;;;10.80;6.72;;;;;;;10.03;67.22;100146.53;685816;28;1355;-85
2023/03/26 00:24:36;;;;;;;10.57;5.95;;;;;;;9.99;67.21;100137.75;685808;28;962;-85
2023/03/26 00:24:58;;;;;;;12.05;6.63;;;;;;;9.92;67.25;100125.44;686065;28;1491;-86
2023/03/26 00:25:27;;;;;;;11.10;6.75;;;;;;;10.00;67.35;100128.19;677924;29;1293;-85
2023/03/26 00:25:49;;;;;;;9.45;6.50;;;;;;;10.03;67.39;100129.97;680563;29;894;-85
2023/03/26 00:26:10;;;;;;;12.05;6.40;;;;;;;10.07;67.37;100142.25;680717;29;1038;-85
2023/03/26 00:26:33;;;;;;;12.52;6.53;;;;;;;10.07;67.28;100137.91;683153;29;1462;-85
2023/03/26 00:26:54;;;;;;;10.95;6.45;;;;;;;10.05;67.15;100130.88;685902;28;909;-85
2023/03/26 00:27:15;;;;;;;10.63;6.95;;;;;;;10.04;67.29;100132.63;687990;28;1020;-86
2023/03/26 00:27:35;;;;;;;10.57;7.10;;;;;;;10.09;67.28;100135.31;685896;28;1292;-85
2023/03/26 00:27:57;;;;;;;12.73;7.45;;;;;;;10.06;67.24;100130.94;685963;28;1214;-85
2023/03/26 00:28:21;;;;;;;13.57;7.32;;;;;;;10.00;67.16;100115.16;685853;28;1281;-85
2023/03/26 00:28:42;;;;;;;14.45;7.47;;;;;;;10.03;67.30;100130.88;685887;28;1425;-86
2023/03/26 00:29:03;;;;;;;12.38;6.93;;;;;;;10.03;67.28;100120.44;685991;28;1131;-85
2023/03/26 00:29:26;;;;;;;11.40;6.55;;;;;;;10.04;66.83;100127.41;683376;29;1199;-86
2023/03/26 00:29:47;;;;;;;9.57;6.45;;;;;;;10.08;67.14;100129.22;686037;28;1285;-85
2023/03/26 00:30:08;;;;;;;9.97;6.43;;;;;;;10.11;66.94;100138.84;685948;28;1160;-85
2023/03/26 00:30:28;;;;;;;10.00;6.60;;;;;;;10.05;67.03;100123.06;685909;28;1133;-85
2023/03/26 00:30:57;;;;;;;9.80;6.30;;;;;;;10.12;66.83;100138.88;685958;28;1300;-85
2023/03/26 00:31:17;;;;;;;9.57;6.63;;;;;;;10.12;67.04;100135.38;688485;28;989;-85
2023/03/26 00:31:44;;;;;;;10.52;6.55;;;;;;;10.04;67.00;100121.31;685854;28;1284;-85
2023/03/26 00:32:05;;;;;;;11.75;6.38;;;;;;;10.05;67.24;100125.66;688527;28;1262;-86
2023/03/26 00:32:29;;;;;;;12.63;6.95;;;;;;;10.06;66.95;100125.72;683218;29;1342;-85
2023/03/26 00:32:50;;;;;;;13.18;6.90;;;;;;;10.08;66.87;100131.81;683512;29;851;-86
2023/03/26 00:33:10;;;;;;;11.68;6.50;;;;;;;10.00;67.07;100141.22;685894;28;1178;-85
2023/03/26 00:33:31;;;;;;;11.77;6.40;;;;;;;10.03;66.97;100145.63;685951;28;1021;-85
2023/03/26 00:33:55;;;;;;;10.32;6.50;;;;;;;10.01;67.30;100146.47;685928;28;1267;-86
2023/03/26 00:34:25;;;;;;;9.85;6.18;;;;;;;9.93;67.46;100134.13;685956;28;1225;-85
2023/03/26 00:34:47;;;;;;;11.80;6.22;;;;;;;9.89;67.65;100127.09;680603;29;883;-85
2023/03/26 00:35:08;;;;;;;10.50;6.13;;;;;;;9.91;67.28;100125.41;685839;28;1262;-85
2023/03/26 00:35:29;;;;;;;8.65;6.10;;;;;;;9.86;67.60;100135.75;688717;28;1078;-86
2023/03/26 00:35:54;;;;;;;9.18;6.30;;;;;;;9.79;67.74;100121.72;688701;28;1279;-86
2023/03/26 00:36:18;;;;;;;9.07;6.03;;;;;;;9.81;67.73;100125.22;688596;28;1014;-85
2023/03/26 00:36:41;;;;;;;8.10;5.80;;;;;;;9.82;67.47;100132.19;683188;29;1149;-85
2023/03/26 00:37:02;;;;;;;9.45;5.72;;;;;;;9.78;67.66;100130.38;686019;28;894;-86
2023/03/26 00:37:26;;;;;;;10.77;5.80;;;;;;;9.73;67.68;100122.44;688479;28;1219;-86
2023/03/26 00:37:50;;;;;;;11.43;6.00;;;;;;;9.77;67.33;100128.59;688519;28;1286;-85
2023/03/26 00:38:10;;;;;;;9.70;6.10;;;;;;;9.72;67.65;100130.25;688548;28;1133;-85
2023/03/26 00:38:37;;;;;;;9.83;6.10;;;;;;;9.73;67.90;100124.19;683109;29;1165;-85
2023/03/26 00:38:58;;;;;;;10.93;6.28;;;;;;;9.83;67.93;100138.28;683294;29;1300;-85
2023/03/26 00:39:24;;;;;;;10.75;6.10;;;;;;;9.81;68.05;100146.06;685937;28;1027;-85
2023/03/26 00:39:48;;;;;;;13.02;6.40;;;;;;;9.71;67.88;100131.09;688540;28;1247;-85
2023/03/26 00:40:09;;;;;;;11.80;6.15;;;;;;;9.75;68.16;100130.28;688589;28;1034;-85
2023/03/26 00:40:30;;;;;;;9.24;5.86;;;;;;;9.76;67.93;100124.22;685785;28;1099;-85
2023/03/26 00:40:52;;;;;;;10.43;6.43;;;;;;;9.81;68.14;100132.16;683252;29;1135;-85
2023/03/26 00:41:25;;;;;;;11.40;6.80;;;;;;;9.76;68.03;100118.16;683285;29;1066;-86
2023/03/26 00:41:46;;;;;;;9.10;6.20;;;;;;;9.83;68.11;100139.16;688534;28;1978;-86
2023/03/26 00:42:07;;;;;;;9.25;6.00;;;;;;;9.88;68.23;100134.03;688603;28;1046;-85
2023/03/26 00:42:28;;;;;;;11.60;6.57;;;;;;;9.75;68.13;100113.81;685823;28;1143;-86
2023/03/26 00:42:49;;;;;;;12.77;6.95;;;;;;;9.87;68.26;100127.97;685459;28;1101;-85
2023/03/26 00:43:17;;;;;;;11.35;7.13;;;;;;;9.90;67.83;100128.88;685480;28;1158;-85
2023/03/26 00:43:38;;;;;;;11.00;6.30;;;;;;;9.93;67.77;100126.31;683179;29;1109;-86
2023/03/26 00:43:59;;;;;;;12.38;6.20;;;;;;;9.83;68.00;100115.69;683326;29;1162;-85
2023/03/26 00:44:20;;;;;;;13.05;6.25;;;;;;;9.95;68.22;100127.25;680482;29;1145;-85
2023/03/26 00:44:42;;;;;;;12.77;6.40;;;;;;;9.95;68.10;100137.66;677995;29;1154;-85
2023/03/26 00:45:05;;;;;;;12.07;6.70;;;;;;;9.94;68.10;100128.09;680602;29;1117;-86
2023/03/26 00:45:25;;;;;;;10.82;6.85;;;;;;;9.89;67.88;100119.28;680632;29;1172;-86
2023/03/26 00:45:51;;;;;;;10.95;6.80;;;;;;;9.97;67.77;100120.31;685832;28;1067;-85
2023/03/26 00:46:12;;;;;;;8.68;5.85;;;;;;;9.99;67.74;100129.03;683257;29;1021;-85
2023/03/26 00:46:33;;;;;;;10.00;5.63;;;;;;;9.97;67.64;100115.09;685875;28;1427;-86
2023/03/26 00:46:53;;;;;;;9.47;5.43;;;;;;;9.92;67.78;100109.81;685748;28;1052;-86
2023/03/26 00:47:14;;;;;;;10.35;5.78;;;;;;;9.89;67.63;100106.25;685853;28;1154;-85
2023/03/26 00:47:35;;;;;;;10.95;6.55;;;;;;;9.90;67.72;100108.00;680553;29;1036;-85
2023/03/26 00:47:56;;;;;;;10.68;6.15;;;;;;;9.98;67.91;100133.41;685718;28;1261;-85
2023/03/26 00:48:17;;;;;;;10.43;6.10;;;;;;;9.99;67.91;100127.34;688461;28;1320;-85
2023/03/26 00:48:38;;;;;;;10.70;5.78;;;;;;;9.98;67.77;100116.88;685749;28;1479;-85
2023/03/26 00:49:00;;;;;;;11.80;5.90;;;;;;;9.95;67.52;100111.59;683251;29;1084;-85
2023/03/26 00:49:21;;;;;;;12.70;6.15;;;;;;;9.94;67.80;100104.63;683108;29;1236;-85
2023/03/26 00:49:42;;;;;;;12.43;6.20;;;;;;;9.97;67.95;100123.78;683152;29;1184;-85
2023/03/26 00:50:03;;;;;;;12.15;6.30;;;;;;;9.95;67.73;100106.38;685735;28;1152;-85
2023/03/26 00:50:23;;;;;;;11.02;5.70;;;;;;;9.86;67.81;100097.53;683155;29;1369;-85
2023/03/26 00:50:46;;;;;;;9.13;5.50;;;;;;;9.93;67.82;100119.38;682990;29;1087;-85
2023/03/26 00:51:08;;;;;;;9.88;5.75;;;;;;;9.93;67.61;100108.06;680597;29;1097;-85
2023/03/26 00:51:29;;;;;;;11.02;6.28;;;;;;;9.92;67.83;100104.59;683218;29;1148;-85
2023/03/26 00:51:50;;;;;;;11.63;6.20;;;;;;;9.94;67.75;100115.06;683189;29;1390;-85
2023/03/26 00:52:11;;;;;;;10.20;6.37;;;;;;;9.90;67.98;100110.63;688310;28;1245;-85
2023/03/26 00:52:32;;;;;;;10.50;6.35;;;;;;;9.91;67.79;100113.25;685880;28;1210;-86
2023/03/26 00:52:54;;;;;;;9.75;6.30;;;;;;;9.92;67.86;100108.91;685798;28;1171;-84
2023/03/26 00:53:16;;;;;;;10.95;5.93;;;;;;;9.89;67.76;100101.03;685853;28;1013;-83
2023/03/26 00:53:37;;;;;;;12.98;6.28;;;;;;;9.96;67.67;100113.34;688554;28;1087;-83
2023/03/26 00:53:58;;;;;;;12.38;6.20;;;;;;;9.93;67.62;100108.06;685849;28;1255;-83
2023/03/26 00:54:19;;;;;;;10.73;6.40;;;;;;;9.89;67.57;100101.03;685833;28;1104;-83
2023/03/26 00:54:39;;;;;;;11.05;6.63;;;;;;;9.85;67.75;100100.09;683105;29;1296;-83
2023/03/26 00:55:00;;;;;;;13.73;6.80;;;;;;;9.95;67.90;100107.25;680599;29;1138;-83
2023/03/26 00:55:22;;;;;;;15.37;7.27;;;;;;;9.91;67.75;100102.84;683206;28;1090;-82
2023/03/26 00:55:45;;;;;;;15.70;7.35;;;;;;;10.00;67.91;100122.97;685388;28;1062;-83
2023/03/26 00:56:07;;;;;;;14.70;7.53;;;;;;;10.03;67.92;100115.25;688492;28;1296;-83
2023/03/26 00:56:27;;;;;;;15.43;7.72;;;;;;;9.99;67.77;100110.78;683081;29;1280;-83
2023/03/26 00:56:48;;;;;;;14.95;7.57;;;;;;;9.94;67.92;100105.50;685599;28;1216;-83
2023/03/26 00:57:09;;;;;;;16.13;7.80;;;;;;;10.00;68.06;100109.94;685923;28;1053;-83
2023/03/26 00:57:29;;;;;;;13.15;7.13;;;;;;;9.90;67.93;100097.59;685805;28;1108;-85
2023/03/26 00:57:50;;;;;;;12.38;6.90;;;;;;;9.91;67.93;100088.91;683186;28;1200;-86
2023/03/26 00:58:12;;;;;;;12.75;6.80;;;;;;;9.95;68.06;100096.81;685747;28;1138;-85
2023/03/26 00:58:32;;;;;;;14.13;7.30;;;;;;;9.97;67.71;100102.06;683320;29;1049;-85
2023/03/26 00:58:53;;;;;;;12.37;7.00;;;;;;;9.99;67.94;100108.19;685863;28;1133;-85
2023/03/26 00:59:14;;;;;;;11.95;7.28;;;;;;;9.98;67.64;100106.44;682939;29;1297;-85
2023/03/26 00:59:35;;;;;;;12.70;7.38;;;;;;;10.00;67.63;100100.41;685824;28;1121;-85
2023/03/26 00:59:55;;;;;;;13.82;7.45;;;;;;;9.91;67.66;100096.75;683257;29;1193;-85
2023/03/26 01:00:18;;;;;;;13.27;6.80;;;;;;;9.98;67.75;100103.84;683153;29;1221;-85
2023/03/26 01:00:45;;;;;;;13.63;6.47;;;;;;;9.95;67.83;100091.59;683182;29;1374;-85
2023/03/26 01:01:14;;;;;;;16.42;7.05;;;;;;;9.83;67.76;100081.81;688532;28;1285;-86
2023/03/26 01:01:35;;;;;;;15.13;7.20;;;;;;;9.83;67.59;100083.56;685749;28;1101;-85
2023/03/26 01:01:57;;;;;;;14.75;7.10;;;;;;;9.80;67.69;100086.09;685757;28;1971;-85
2023/03/26 01:02:19;;;;;;;13.50;6.50;;;;;;;9.85;67.69;100100.09;685785;28;1238;-85
2023/03/26 01:02:40;;;;;;;12.80;6.63;;;;;;;9.84;67.95;100095.75;685707;28;1021;-85
2023/03/26 01:03:03;;;;;;;12.87;7.00;;;;;;;9.81;67.59;100103.47;685913;28;1364;-85
2023/03/26 01:03:29;;;;;;;15.77;7.68;;;;;;;9.76;67.78;100098.19;685763;28;1418;-85
2023/03/26 01:03:57;;;;;;;15.77;7.63;;;;;;;9.73;67.86;100085.97;685832;28;1403;-85
2023/03/26 01:04:29;;;;;;;15.20;7.32;;;;;;;9.82;68.14;100100.03;688377;28;1336;-85
2023/03/26 01:05:01;;;;;;;13.20;7.40;;;;;;;9.80;68.16;100107.84;685807;28;1085;-85
2023/03/26 01:05:34;;;;;;;13.98;7.10;;;;;;;9.79;68.13;100102.56;688583;28;1109;-86
2023/03/26 01:06:08;;;;;;;16.83;6.95;;;;;;;9.71;68.01;100087.66;685899;28;1264;-85
2023/03/26 01:06:31;;;;;;;14.48;7.53;;;;;;;9.77;68.33;100106.88;680456;29;1271;-85
2023/03/26 01:06:54;;;;;;;12.63;7.35;;;;;;;9.66;68.19;100088.41;682885;29;1298;-85
2023/03/26 01:07:20;;;;;;;14.50;7.20;;;;;;;9.73;68.53;100096.38;688476;28;1051;-85
2023/03/26 01:07:41;;;;;;;16.10;7.30;;;;;;;9.70;68.21;100088.50;688398;28;1097;-85
2023/03/26 01:08:13;;;;;;;15.18;7.50;;;;;;;9.75;68.37;100093.81;688525;28;1296;-85
2023/03/26 01:08:41;;;;;;;15.95;7.70;;;;;;;9.73;68.63;100092.91;688274;28;1264;-86
2023/03/26 01:09:12;;;;;;;15.88;7.60;;;;;;;9.72;68.27;100080.75;685900;28;1112;-85
2023/03/26 01:09:36;;;;;;;15.27;7.10;;;;;;;9.68;68.56;100084.13;685940;28;1176;-86
2023/03/26 01:09:58;;;;;;;15.15;7.07;;;;;;;9.64;68.59;100075.34;685615;28;1032;-85
2023/03/26 01:10:21;;;;;;;14.98;7.03;;;;;;;9.69;68.19;100094.56;683550;28;1191;-86
2023/03/26 01:10:49;;;;;;;19.05;7.40;;;;;;;9.78;68.38;100100.81;683120;29;1248;-86
2023/03/26 01:11:24;;;;;;;20.92;7.53;;;;;;;9.83;68.45;100104.41;680553;29;1076;-85
2023/03/26 01:11:47;;;;;;;18.27;7.80;;;;;;;9.80;68.31;100104.34;681537;29;1049;-86
2023/03/26 01:12:12;;;;;;;18.33;7.90;;;;;;;9.73;68.65;100077.28;680498;29;1276;-85
2023/03/26 01:12:32;;;;;;;22.05;8.23;;;;;;;9.73;68.45;100075.53;685698;28;997;-85
2023/03/26 01:12:53;;;;;;;20.02;8.45;;;;;;;9.84;68.50;100094.00;685777;28;1192;-85
2023/03/26 01:13:33;;;;;;;17.83;7.60;;;;;;;9.94;68.66;100095.06;685855;28;1124;-85
2023/03/26 01:14:03;;;;;;;16.33;7.28;;;;;;;9.93;68.50;100092.41;683107;28;2062;-85
2023/03/26 01:14:25;;;;;;;15.73;6.80;;;;;;;9.77;68.42;100071.28;685830;28;1180;-85
2023/03/26 01:14:47;;;;;;;19.48;6.97;;;;;;;9.90;68.53;100087.16;683099;28;1305;-85
2023/03/26 01:15:09;;;;;;;22.27;7.80;;;;;;;9.93;68.12;100089.81;680417;29;1211;-85
2023/03/26 01:15:29;;;;;;;22.38;8.13;;;;;;;9.93;68.43;100092.41;683178;29;1184;-85
2023/03/26 01:15:51;;;;;;;19.37;8.53;;;;;;;9.92;68.22;100085.47;688425;28;1275;-86
2023/03/26 01:16:23;;;;;;;18.52;7.95;;;;;;;9.82;68.42;100069.66;688562;28;1174;-85
2023/03/26 01:16:50;;;;;;;17.42;7.50;;;;;;;9.82;68.12;100077.47;690846;28;1309;-86
2023/03/26 01:17:12;;;;;;;15.85;7.28;;;;;;;9.84;68.36;100069.69;688494;28;1052;-85
2023/03/26 01:17:36;;;;;;;15.82;7.10;;;;;;;9.91;68.27;100083.69;688488;28;1373;-85
2023/03/26 01:17:57;;;;;;;19.60;6.90;;;;;;;9.82;68.48;100080.06;685801;28;875;-86
2023/03/26 01:18:25;;;;;;;16.30;6.65;;;;;;;9.91;68.30;100092.41;685609;28;1230;-85
2023/03/26 01:18:47;;;;;;;12.65;6.82;;;;;;;9.93;68.26;100088.09;685665;28;1355;-85
2023/03/26 01:19:36;;;;;;;16.48;7.13;;;;;;;9.85;68.57;100080.13;680473;29;971;-85
2023/03/26 01:20:13;;;;;;;18.30;7.00;;;;;;;9.77;68.32;100071.28;682820;29;1188;-86
2023/03/26 01:20:45;;;;;;;19.25;7.10;;;;;;;9.87;68.61;100094.06;685749;28;1375;-84
2023/03/26 01:21:08;;;;;;;17.40;7.22;;;;;;;9.79;68.63;100064.38;680487;29;1253;-85
2023/03/26 01:21:29;;;;;;;17.83;7.18;;;;;;;9.80;68.50;100065.25;677900;29;1136;-85
2023/03/26 01:21:49;;;;;;;15.50;6.82;;;;;;;9.86;68.61;100071.47;685701;28;2017;-85
2023/03/26 01:22:15;;;;;;;14.82;6.88;;;;;;;9.82;68.34;100064.44;685882;28;1105;-85
2023/03/26 01:22:36;;;;;;;15.48;7.18;;;;;;;9.81;68.46;100070.50;685720;28;1326;-86
2023/03/26 01:23:04;;;;;;;16.08;6.97;;;;;;;9.86;68.44;100079.28;680531;29;1368;-85
2023/03/26 01:23:36;;;;;;;17.80;6.80;;;;;;;9.82;68.64;100073.97;683111;29;943;-85
2023/03/26 01:24:00;;;;;;;17.23;6.93;;;;;;;9.94;68.52;100092.47;680403;29;1107;-85
2023/03/26 01:24:21;;;;;;;15.60;6.68;;;;;;;9.78;68.44;100062.63;683054;28;1026;-85
2023/03/26 01:24:44;;;;;;;16.50;6.68;;;;;;;9.89;68.37;100081.06;685638;28;1189;-85
2023/03/26 01:25:06;;;;;;;19.80;6.50;;;;;;;9.82;68.31;100077.47;688429;28;1392;-85
2023/03/26 01:25:33;;;;;;;21.05;6.70;;;;;;;9.89;68.52;100080.19;688364;28;1115;-85
2023/03/26 01:26:07;;;;;;;18.67;7.13;;;;;;;9.85;68.50;100080.13;683205;29;1114;-86
2023/03/26 01:26:52;;;;;;;19.48;7.22;;;;;;;9.88;68.21;100081.91;683006;29;1516;-86
2023/03/26 01:27:30;;;;;;;15.75;6.95;;;;;;;9.85;68.30;100087.94;682999;29;1068;-85
2023/03/26 01:27:54;;;;;;;16.40;6.95;;;;;;;9.73;68.48;100065.13;682617;29;1110;-85
2023/03/26 01:28:17;;;;;;;18.30;6.68;;;;;;;9.75;68.50;100077.31;681903;28;1336;-86
2023/03/26 01:28:40;;;;;;;17.65;6.95;;;;;;;9.73;68.43;100070.31;680351;29;1331;-86
2023/03/26 01:29:03;;;;;;;19.80;7.38;;;;;;;9.79;68.60;100074.81;680424;29;1234;-85
2023/03/26 01:29:38;;;;;;;19.13;7.20;;;;;;;9.89;68.47;100090.63;680505;29;1228;-85
2023/03/26 01:30:16;;;;;;;18.92;6.78;;;;;;;9.76;68.83;100072.13;683189;29;820;-85
2023/03/26 01:30:42;;;;;;;19.50;7.00;;;;;;;9.84;68.80;100086.19;685349;28;1122;-85
2023/03/26 01:31:14;;;;;;;20.70;7.07;;;;;;;9.76;68.57;100069.50;685686;28;1125;-85
2023/03/26 01:31:35;;;;;;;19.40;6.78;;;;;;;9.89;68.44;100088.00;685621;28;1199;-85
2023/03/26 01:32:08;;;;;;;18.52;7.28;;;;;;;9.85;68.31;100084.47;685793;28;927;-85
2023/03/26 01:32:36;;;;;;;18.08;7.40;;;;;;;9.87;68.63;100081.06;685806;28;1041;-85
2023/03/26 01:33:06;;;;;;;16.80;6.70;;;;;;;9.77;68.84;100066.06;688506;28;836;-86
2023/03/26 01:33:42;;;;;;;19.60;6.97;;;;;;;9.80;68.55;100066.13;687267;28;895;-85
2023/03/26 01:34:11;;;;;;;20.13;6.90;;;;;;;9.81;68.60;100072.22;688375;28;1263;-85
2023/03/26 01:34:48;;;;;;;17.73;6.72;;;;;;;9.96;68.53;100092.50;688273;28;1372;-85
2023/03/26 01:35:33;;;;;;;19.90;7.25;;;;;;;10.06;68.52;100086.59;685694;28;1130;-86
2023/03/26 01:36:20;;;;;;;22.30;7.50;;;;;;;10.07;68.63;100093.56;683104;29;1364;-85
2023/03/26 01:36:45;;;;;;;19.85;6.97;;;;;;;9.94;68.68;100068.16;680326;29;1515;-85
2023/03/26 01:37:26;;;;;;;17.40;6.82;;;;;;;10.09;68.49;100085.78;680500;29;1254;-85
2023/03/26 01:38:01;;;;;;;19.92;6.93;;;;;;;10.00;68.27;100066.53;680436;29;991;-85
2023/03/26 01:38:59;;;;;;;19.85;6.72;;;;;;;10.16;67.96;100090.28;680445;29;1254;-86
2023/03/26 01:39:24;;;;;;;16.27;6.65;;;;;;;10.15;68.16;100083.31;682885;29;1347;-85
2023/03/26 01:40:17;;;;;;;15.90;6.40;;;;;;;10.08;68.03;100061.44;685664;28;1413;-85
2023/03/26 01:40:48;;;;;;;22.50;7.50;;;;;;;10.11;68.02;100064.13;682781;29;1448;-85
2023/03/26 01:41:36;;;;;;;22.70;7.00;;;;;;;10.23;68.00;100083.47;685576;28;1474;-85
2023/03/26 01:42:07;;;;;;;18.05;6.60;;;;;;;10.13;67.91;100070.22;685218;28;1964;-85
2023/03/26 01:42:39;;;;;;;19.45;6.88;;;;;;;10.15;67.57;100063.31;686858;28;1096;-85
2023/03/26 01:43:12;;;;;;;20.35;6.20;;;;;;;10.24;67.54;100069.56;687180;28;1282;-85
2023/03/26 01:43:43;;;;;;;18.02;6.00;;;;;;;10.23;67.47;100071.31;685625;28;1144;-85
2023/03/26 01:44:24;;;;;;;13.07;5.93;;;;;;;10.23;67.74;100060.91;688475;28;1106;-85
2023/03/26 01:45:01;;;;;;;17.40;6.60;;;;;;;10.31;67.73;100073.19;685862;28;870;-85
2023/03/26 01:45:30;;;;;;;14.82;6.20;;;;;;;10.20;67.42;100059.94;688530;28;1103;-85
2023/03/26 01:45:53;;;;;;;12.48;5.93;;;;;;;10.35;67.46;100081.09;685750;28;1380;-85
2023/03/26 01:46:15;;;;;;;17.10;6.30;;;;;;;10.29;67.15;100060.13;685776;28;1005;-85
2023/03/26 01:46:36;;;;;;;19.70;6.45;;;;;;;10.26;67.15;100055.72;685754;28;1540;-85
2023/03/26 01:46:59;;;;;;;20.77;6.40;;;;;;;10.31;67.22;100068.84;683008;28;1176;-85
2023/03/26 01:47:20;;;;;;;18.92;6.70;;;;;;;10.27;67.06;100052.25;688148;28;1382;-85
2023/03/26 01:47:42;;;;;;;20.92;6.85;;;;;;;10.28;67.11;100063.59;685624;28;1288;-86
2023/03/26 01:48:03;;;;;;;21.90;6.72;;;;;;;10.31;66.96;100068.84;685710;28;1224;-84
2023/03/26 01:48:35;;;;;;;20.83;6.18;;;;;;;10.33;67.02;100069.72;683101;29;924;-85
2023/03/26 01:48:55;;;;;;;13.43;5.55;;;;;;;10.38;67.12;100070.72;685665;28;943;-85
2023/03/26 01:49:17;;;;;;;13.80;5.53;;;;;;;10.41;66.85;100086.44;683039;29;1310;-85
2023/03/26 01:49:37;;;;;;;15.93;6.00;;;;;;;10.34;66.79;100070.63;680378;29;1271;-85
2023/03/26 01:49:58;;;;;;;17.20;6.10;;;;;;;10.29;66.90;100070.53;688531;28;1105;-85
2023/03/26 01:50:19;;;;;;;19.50;6.47;;;;;;;10.34;67.00;100068.91;688331;28;1210;-85
2023/03/26 01:50:40;;;;;;;21.67;6.67;;;;;;;10.39;67.03;100076.81;688508;28;962;-86
2023/03/26 01:51:01;;;;;;;22.50;7.00;;;;;;;10.43;67.02;100077.75;683092;29;1182;-85
2023/03/26 01:51:30;;;;;;;21.67;7.25;;;;;;;10.34;67.00;100066.31;683039;28;1105;-85
2023/03/26 01:51:51;;;;;;;23.38;7.72;;;;;;;10.28;66.67;100047.94;685658;28;1473;-85
2023/03/26 01:52:17;;;;;;;22.50;7.32;;;;;;;10.40;66.79;100069.00;685724;28;1090;-85
2023/03/26 01:52:37;;;;;;;20.20;6.68;;;;;;;10.32;66.91;100060.16;688535;28;1021;-85
2023/03/26 01:52:59;;;;;;;19.83;6.80;;;;;;;10.32;66.67;100056.69;685758;28;1272;-85
2023/03/26 01:53:19;;;;;;;19.15;6.00;;;;;;;10.38;66.81;100067.25;683076;28;1329;-85
2023/03/26 01:53:45;;;;;;;18.58;6.03;;;;;;;10.28;66.57;100054.00;688249;28;1106;-86
2023/03/26 01:54:11;;;;;;;17.08;5.82;;;;;;;10.34;66.90;100057.59;682935;28;1431;-85
2023/03/26 01:54:32;;;;;;;16.40;6.00;;;;;;;10.32;66.61;100049.72;685663;28;1393;-85
2023/03/26 01:54:55;;;;;;;18.10;5.97;;;;;;;10.34;66.47;100063.69;685696;28;1285;-85
2023/03/26 01:55:17;;;;;;;17.63;5.65;;;;;;;10.33;66.68;100063.66;684602;28;1307;-85
2023/03/26 01:55:48;;;;;;;16.60;5.70;;;;;;;10.49;66.41;100077.81;683061;29;1258;-83
2023/03/26 01:56:37;;;;;;;16.80;6.07;;;;;;;10.49;66.80;100072.63;680328;29;1093;-83
2023/03/26 01:57:12;;;;;;;17.42;5.70;;;;;;;10.52;66.42;100077.91;680262;29;1227;-83
2023/03/26 01:57:51;;;;;;;17.52;5.68;;;;;;;10.46;66.21;100068.25;682962;28;1049;-83